sensor_id;sensor_type;location;lat;lon;timestamp;P1;durP1;ratioP1;P2;durP2;ratioP2
79452;SDS011;68899;52.116;5.404;2023-10-13T00:00:27;15.60;;;7.45;;
79452;SDS011;68899;52.116;5.404;2023-10-13T00:03:04;15.02;;;7.70;;
79452;SDS011;68899;52.116;5.404;2023-10-13T00:05:32;14.90;;;6.95;;
79452;SDS011;68899;52.116;5.404;2023-10-13T00:08:00;14.40;;;7.30;;
79452;SDS011;68899;52.116;5.404;2023-10-13T00:10:29;15.45;;;7.65;;
79452;SDS011;68899;52.116;5.404;2023-10-13T00:12:57;15.35;;;7.65;;
79452;SDS011;68899;52.116;5.404;2023-10-13T00:15:42;13.93;;;6.65;;
79452;SDS011;68899;52.116;5.404;2023-10-13T00:18:29;17.45;;;9.55;;
79452;SDS011;68899;52.116;5.404;2023-10-13T00:21:00;16.42;;;7.60;;
79452;SDS011;68899;52.116;5.404;2023-10-13T00:23:41;16.48;;;7.82;;
79452;SDS011;68899;52.116;5.404;2023-10-13T00:26:22;14.65;;;7.13;;
79452;SDS011;68899;52.116;5.404;2023-10-13T00:29:00;12.77;;;6.70;;
79452;SDS011;68899;52.116;5.404;2023-10-13T00:31:41;13.73;;;7.28;;
79452;SDS011;68899;52.116;5.404;2023-10-13T00:34:15;15.30;;;7.68;;
79452;SDS011;68899;52.116;5.404;2023-10-13T00:36:58;14.18;;;7.38;;
79452;SDS011;68899;52.116;5.404;2023-10-13T00:39:58;14.77;;;7.18;;
79452;SDS011;68899;52.116;5.404;2023-10-13T00:42:27;15.57;;;7.05;;
79452;SDS011;68899;52.116;5.404;2023-10-13T00:45:13;12.15;;;6.25;;
79452;SDS011;68899;52.116;5.404;2023-10-13T00:47:43;13.90;;;7.10;;
79452;SDS011;68899;52.116;5.404;2023-10-13T00:50:16;14.15;;;6.70;;
79452;SDS011;68899;52.116;5.404;2023-10-13T00:52:44;14.90;;;6.40;;
79452;SDS011;68899;52.116;5.404;2023-10-13T00:55:17;14.70;;;6.60;;
79452;SDS011;68899;52.116;5.404;2023-10-13T00:57:51;16.45;;;6.57;;
79452;SDS011;68899;52.116;5.404;2023-10-13T01:00:20;12.90;;;6.63;;
79452;SDS011;68899;52.116;5.404;2023-10-13T01:02:52;15.25;;;7.53;;
79452;SDS011;68899;52.116;5.404;2023-10-13T01:05:23;12.40;;;6.93;;
79452;SDS011;68899;52.116;5.404;2023-10-13T01:07:51;15.43;;;7.18;;
79452;SDS011;68899;52.116;5.404;2023-10-13T01:10:21;16.55;;;7.43;;
79452;SDS011;68899;52.116;5.404;2023-10-13T01:12:54;15.07;;;6.90;;
79452;SDS011;68899;52.116;5.404;2023-10-13T01:15:21;15.95;;;7.60;;
79452;SDS011;68899;52.116;5.404;2023-10-13T01:17:48;16.15;;;8.02;;
79452;SDS011;68899;52.116;5.404;2023-10-13T01:20:15;15.02;;;7.90;;
79452;SDS011;68899;52.116;5.404;2023-10-13T01:22:51;17.45;;;8.98;;
79452;SDS011;68899;52.116;5.404;2023-10-13T01:25:24;14.20;;;8.15;;
79452;SDS011;68899;52.116;5.404;2023-10-13T01:27:53;14.85;;;8.45;;
79452;SDS011;68899;52.116;5.404;2023-10-13T01:30:20;17.20;;;8.82;;
79452;SDS011;68899;52.116;5.404;2023-10-13T01:32:51;15.95;;;9.00;;
79452;SDS011;68899;52.116;5.404;2023-10-13T01:35:20;15.63;;;7.50;;
79452;SDS011;68899;52.116;5.404;2023-10-13T01:37:52;18.85;;;9.25;;
79452;SDS011;68899;52.116;5.404;2023-10-13T01:40:19;17.85;;;9.45;;
79452;SDS011;68899;52.116;5.404;2023-10-13T01:42:47;16.70;;;8.75;;
79452;SDS011;68899;52.116;5.404;2023-10-13T01:45:13;18.57;;;9.00;;
79452;SDS011;68899;52.116;5.404;2023-10-13T01:47:40;17.70;;;9.00;;
79452;SDS011;68899;52.116;5.404;2023-10-13T01:50:06;15.13;;;8.07;;
79452;SDS011;68899;52.116;5.404;2023-10-13T01:52:41;16.10;;;8.73;;
79452;SDS011;68899;52.116;5.404;2023-10-13T01:55:08;14.13;;;8.40;;
79452;SDS011;68899;52.116;5.404;2023-10-13T01:57:37;14.25;;;8.40;;
79452;SDS011;68899;52.116;5.404;2023-10-13T02:00:06;15.40;;;8.48;;
79452;SDS011;68899;52.116;5.404;2023-10-13T02:02:45;15.48;;;7.28;;
79452;SDS011;68899;52.116;5.404;2023-10-13T02:05:16;15.10;;;7.80;;
79452;SDS011;68899;52.116;5.404;2023-10-13T02:07:43;15.10;;;7.13;;
79452;SDS011;68899;52.116;5.404;2023-10-13T02:10:11;17.67;;;7.68;;
79452;SDS011;68899;52.116;5.404;2023-10-13T02:12:39;15.15;;;7.95;;
79452;SDS011;68899;52.116;5.404;2023-10-13T02:15:11;13.45;;;7.53;;
79452;SDS011;68899;52.116;5.404;2023-10-13T02:17:48;13.68;;;7.50;;
79452;SDS011;68899;52.116;5.404;2023-10-13T02:20:18;13.80;;;7.43;;
79452;SDS011;68899;52.116;5.404;2023-10-13T02:22:49;12.95;;;6.97;;
79452;SDS011;68899;52.116;5.404;2023-10-13T02:25:16;15.55;;;8.13;;
79452;SDS011;68899;52.116;5.404;2023-10-13T02:28:01;13.48;;;6.90;;
79452;SDS011;68899;52.116;5.404;2023-10-13T02:30:28;12.20;;;6.50;;
79452;SDS011;68899;52.116;5.404;2023-10-13T02:32:55;13.10;;;7.60;;
79452;SDS011;68899;52.116;5.404;2023-10-13T02:35:24;11.38;;;6.72;;
79452;SDS011;68899;52.116;5.404;2023-10-13T02:37:56;11.90;;;6.30;;
79452;SDS011;68899;52.116;5.404;2023-10-13T02:40:25;12.55;;;6.35;;
79452;SDS011;68899;52.116;5.404;2023-10-13T02:42:52;11.93;;;6.32;;
79452;SDS011;68899;52.116;5.404;2023-10-13T02:45:19;12.68;;;6.03;;
79452;SDS011;68899;52.116;5.404;2023-10-13T02:47:49;12.73;;;6.50;;
79452;SDS011;68899;52.116;5.404;2023-10-13T02:50:37;13.43;;;6.30;;
79452;SDS011;68899;52.116;5.404;2023-10-13T02:53:09;11.23;;;6.22;;
79452;SDS011;68899;52.116;5.404;2023-10-13T02:55:48;14.32;;;6.47;;
79452;SDS011;68899;52.116;5.404;2023-10-13T02:58:19;12.13;;;5.80;;
79452;SDS011;68899;52.116;5.404;2023-10-13T03:00:47;11.98;;;6.13;;
79452;SDS011;68899;52.116;5.404;2023-10-13T03:03:13;13.85;;;6.50;;
79452;SDS011;68899;52.116;5.404;2023-10-13T03:05:45;12.80;;;7.25;;
79452;SDS011;68899;52.116;5.404;2023-10-13T03:08:12;11.73;;;5.63;;
79452;SDS011;68899;52.116;5.404;2023-10-13T03:10:44;12.45;;;6.50;;
79452;SDS011;68899;52.116;5.404;2023-10-13T03:13:15;12.18;;;6.68;;
79452;SDS011;68899;52.116;5.404;2023-10-13T03:15:42;12.25;;;6.43;;
79452;SDS011;68899;52.116;5.404;2023-10-13T03:18:13;13.13;;;5.70;;
79452;SDS011;68899;52.116;5.404;2023-10-13T03:20:45;14.48;;;5.90;;
79452;SDS011;68899;52.116;5.404;2023-10-13T03:23:16;12.88;;;5.95;;
79452;SDS011;68899;52.116;5.404;2023-10-13T03:25:43;10.70;;;6.30;;
79452;SDS011;68899;52.116;5.404;2023-10-13T03:28:09;13.10;;;6.25;;
79452;SDS011;68899;52.116;5.404;2023-10-13T03:30:42;11.18;;;5.78;;
79452;SDS011;68899;52.116;5.404;2023-10-13T03:33:10;13.43;;;5.15;;
79452;SDS011;68899;52.116;5.404;2023-10-13T03:35:40;11.02;;;5.50;;
79452;SDS011;68899;52.116;5.404;2023-10-13T03:38:18;12.10;;;5.05;;
79452;SDS011;68899;52.116;5.404;2023-10-13T03:40:45;11.32;;;6.00;;
79452;SDS011;68899;52.116;5.404;2023-10-13T03:43:23;10.32;;;4.78;;
79452;SDS011;68899;52.116;5.404;2023-10-13T03:45:50;9.60;;;5.55;;
79452;SDS011;68899;52.116;5.404;2023-10-13T03:48:27;11.65;;;5.35;;
79452;SDS011;68899;52.116;5.404;2023-10-13T03:50:56;11.60;;;4.78;;
79452;SDS011;68899;52.116;5.404;2023-10-13T03:53:33;9.68;;;5.10;;
79452;SDS011;68899;52.116;5.404;2023-10-13T03:56:05;8.90;;;4.40;;
79452;SDS011;68899;52.116;5.404;2023-10-13T03:58:41;9.93;;;4.80;;
79452;SDS011;68899;52.116;5.404;2023-10-13T04:01:20;8.43;;;5.45;;
79452;SDS011;68899;52.116;5.404;2023-10-13T04:03:58;8.35;;;4.95;;
79452;SDS011;68899;52.116;5.404;2023-10-13T04:06:40;10.82;;;4.88;;
79452;SDS011;68899;52.116;5.404;2023-10-13T04:09:15;9.82;;;5.22;;
79452;SDS011;68899;52.116;5.404;2023-10-13T04:12:03;8.32;;;4.72;;
79452;SDS011;68899;52.116;5.404;2023-10-13T04:14:31;10.20;;;4.93;;
79452;SDS011;68899;52.116;5.404;2023-10-13T04:17:17;11.10;;;4.63;;
79452;SDS011;68899;52.116;5.404;2023-10-13T04:19:58;11.20;;;5.60;;
79452;SDS011;68899;52.116;5.404;2023-10-13T04:25:15;10.38;;;4.93;;
79452;SDS011;68899;52.116;5.404;2023-10-13T04:28:06;10.68;;;5.97;;
79452;SDS011;68899;52.116;5.404;2023-10-13T04:30:44;8.48;;;4.90;;
79452;SDS011;68899;52.116;5.404;2023-10-13T04:33:22;8.23;;;4.85;;
79452;SDS011;68899;52.116;5.404;2023-10-13T04:36:21;8.93;;;4.53;;
79452;SDS011;68899;52.116;5.404;2023-10-13T04:44:24;8.90;;;4.47;;
79452;SDS011;68899;52.116;5.404;2023-10-13T04:47:09;8.73;;;4.38;;
79452;SDS011;68899;52.116;5.404;2023-10-13T04:49:44;7.07;;;4.03;;
79452;SDS011;68899;52.116;5.404;2023-10-13T04:52:13;7.43;;;4.10;;
79452;SDS011;68899;52.116;5.404;2023-10-13T04:54:53;7.15;;;3.80;;
79452;SDS011;68899;52.116;5.404;2023-10-13T04:57:20;7.07;;;4.22;;
79452;SDS011;68899;52.116;5.404;2023-10-13T05:00:08;9.23;;;4.47;;
79452;SDS011;68899;52.116;5.404;2023-10-13T05:02:38;7.65;;;4.18;;
79452;SDS011;68899;52.116;5.404;2023-10-13T05:05:13;5.85;;;3.50;;
79452;SDS011;68899;52.116;5.404;2023-10-13T05:07:40;5.47;;;3.05;;
79452;SDS011;68899;52.116;5.404;2023-10-13T05:10:26;7.40;;;3.50;;
79452;SDS011;68899;52.116;5.404;2023-10-13T05:13:11;6.70;;;3.70;;
79452;SDS011;68899;52.116;5.404;2023-10-13T05:15:57;8.60;;;4.22;;
79452;SDS011;68899;52.116;5.404;2023-10-13T05:18:42;7.07;;;4.07;;
79452;SDS011;68899;52.116;5.404;2023-10-13T05:21:26;5.97;;;3.75;;
79452;SDS011;68899;52.116;5.404;2023-10-13T05:24:11;6.45;;;3.47;;
79452;SDS011;68899;52.116;5.404;2023-10-13T05:26:56;8.35;;;4.18;;
79452;SDS011;68899;52.116;5.404;2023-10-13T05:29:43;8.05;;;4.85;;
79452;SDS011;68899;52.116;5.404;2023-10-13T05:32:29;8.65;;;5.07;;
79452;SDS011;68899;52.116;5.404;2023-10-13T05:35:15;8.73;;;4.85;;
79452;SDS011;68899;52.116;5.404;2023-10-13T05:38:01;10.80;;;4.90;;
79452;SDS011;68899;52.116;5.404;2023-10-13T05:41:05;11.40;;;4.70;;
79452;SDS011;68899;52.116;5.404;2023-10-13T05:43:51;10.52;;;4.78;;
79452;SDS011;68899;52.116;5.404;2023-10-13T05:46:37;10.07;;;4.60;;
79452;SDS011;68899;52.116;5.404;2023-10-13T05:49:04;8.55;;;3.65;;
79452;SDS011;68899;52.116;5.404;2023-10-13T05:51:38;10.20;;;4.15;;
79452;SDS011;68899;52.116;5.404;2023-10-13T05:54:07;10.02;;;3.75;;
79452;SDS011;68899;52.116;5.404;2023-10-13T05:56:40;11.32;;;3.63;;
79452;SDS011;68899;52.116;5.404;2023-10-13T05:59:26;9.45;;;3.92;;
79452;SDS011;68899;52.116;5.404;2023-10-13T06:02:15;8.23;;;3.47;;
79452;SDS011;68899;52.116;5.404;2023-10-13T06:05:02;7.47;;;3.38;;
79452;SDS011;68899;52.116;5.404;2023-10-13T06:07:55;9.80;;;3.90;;
79452;SDS011;68899;52.116;5.404;2023-10-13T06:10:40;9.70;;;3.85;;
79452;SDS011;68899;52.116;5.404;2023-10-13T06:13:26;9.02;;;4.03;;
79452;SDS011;68899;52.116;5.404;2023-10-13T06:16:13;10.30;;;3.83;;
79452;SDS011;68899;52.116;5.404;2023-10-13T06:19:00;7.68;;;3.70;;
79452;SDS011;68899;52.116;5.404;2023-10-13T06:21:46;9.80;;;4.15;;
79452;SDS011;68899;52.116;5.404;2023-10-13T06:24:32;10.73;;;4.43;;
79452;SDS011;68899;52.116;5.404;2023-10-13T06:27:17;9.73;;;4.07;;
79452;SDS011;68899;52.116;5.404;2023-10-13T06:30:02;10.90;;;3.83;;
79452;SDS011;68899;52.116;5.404;2023-10-13T06:32:30;9.45;;;3.47;;
79452;SDS011;68899;52.116;5.404;2023-10-13T06:34:59;12.30;;;4.80;;
79452;SDS011;68899;52.116;5.404;2023-10-13T06:37:44;9.82;;;4.07;;
79452;SDS011;68899;52.116;5.404;2023-10-13T06:40:11;9.55;;;4.03;;
79452;SDS011;68899;52.116;5.404;2023-10-13T06:43:00;10.20;;;3.63;;
79452;SDS011;68899;52.116;5.404;2023-10-13T06:45:39;10.95;;;4.22;;
79452;SDS011;68899;52.116;5.404;2023-10-13T06:48:06;13.77;;;4.63;;
79452;SDS011;68899;52.116;5.404;2023-10-13T06:50:37;9.90;;;5.88;;
79452;SDS011;68899;52.116;5.404;2023-10-13T06:53:08;11.00;;;4.80;;
79452;SDS011;68899;52.116;5.404;2023-10-13T06:55:38;10.30;;;5.07;;
79452;SDS011;68899;52.116;5.404;2023-10-13T06:58:06;11.30;;;5.20;;
79452;SDS011;68899;52.116;5.404;2023-10-13T07:00:33;10.25;;;4.70;;
79452;SDS011;68899;52.116;5.404;2023-10-13T07:03:01;8.88;;;5.30;;
79452;SDS011;68899;52.116;5.404;2023-10-13T07:05:44;9.30;;;5.45;;
79452;SDS011;68899;52.116;5.404;2023-10-13T07:08:15;11.77;;;5.78;;
79452;SDS011;68899;52.116;5.404;2023-10-13T07:10:53;8.07;;;5.57;;
79452;SDS011;68899;52.116;5.404;2023-10-13T07:13:28;11.63;;;5.63;;
79452;SDS011;68899;52.116;5.404;2023-10-13T07:15:56;9.70;;;5.85;;
79452;SDS011;68899;52.116;5.404;2023-10-13T07:18:55;12.05;;;5.82;;
79452;SDS011;68899;52.116;5.404;2023-10-13T07:21:21;10.43;;;6.13;;
79452;SDS011;68899;52.116;5.404;2023-10-13T07:23:54;11.13;;;5.57;;
79452;SDS011;68899;52.116;5.404;2023-10-13T07:26:34;9.48;;;5.72;;
79452;SDS011;68899;52.116;5.404;2023-10-13T07:29:09;11.70;;;6.00;;
79452;SDS011;68899;52.116;5.404;2023-10-13T07:31:36;9.98;;;5.55;;
79452;SDS011;68899;52.116;5.404;2023-10-13T07:34:06;9.68;;;5.25;;
79452;SDS011;68899;52.116;5.404;2023-10-13T07:36:39;7.35;;;5.00;;
79452;SDS011;68899;52.116;5.404;2023-10-13T07:39:06;12.00;;;5.63;;
79452;SDS011;68899;52.116;5.404;2023-10-13T07:41:59;9.68;;;4.40;;
79452;SDS011;68899;52.116;5.404;2023-10-13T07:44:41;12.23;;;5.30;;
79452;SDS011;68899;52.116;5.404;2023-10-13T07:47:13;14.15;;;5.63;;
79452;SDS011;68899;52.116;5.404;2023-10-13T07:49:40;12.57;;;4.57;;
79452;SDS011;68899;52.116;5.404;2023-10-13T07:52:08;9.82;;;4.70;;
79452;SDS011;68899;52.116;5.404;2023-10-13T07:54:52;7.78;;;4.38;;
79452;SDS011;68899;52.116;5.404;2023-10-13T07:57:38;12.20;;;4.97;;
79452;SDS011;68899;52.116;5.404;2023-10-13T08:00:26;11.60;;;4.57;;
79452;SDS011;68899;52.116;5.404;2023-10-13T08:03:05;10.30;;;4.50;;
79452;SDS011;68899;52.116;5.404;2023-10-13T08:05:36;9.18;;;3.95;;
79452;SDS011;68899;52.116;5.404;2023-10-13T08:08:08;11.65;;;4.47;;
79452;SDS011;68899;52.116;5.404;2023-10-13T08:10:41;13.18;;;5.35;;
79452;SDS011;68899;52.116;5.404;2023-10-13T08:13:11;10.07;;;4.50;;
79452;SDS011;68899;52.116;5.404;2023-10-13T08:15:42;10.55;;;4.82;;
79452;SDS011;68899;52.116;5.404;2023-10-13T08:18:14;13.20;;;4.78;;
79452;SDS011;68899;52.116;5.404;2023-10-13T08:20:57;9.18;;;4.07;;
79452;SDS011;68899;52.116;5.404;2023-10-13T08:23:30;12.88;;;4.53;;
79452;SDS011;68899;52.116;5.404;2023-10-13T08:26:15;11.98;;;4.78;;
79452;SDS011;68899;52.116;5.404;2023-10-13T08:29:01;9.50;;;3.90;;
79452;SDS011;68899;52.116;5.404;2023-10-13T08:31:50;10.43;;;4.38;;
79452;SDS011;68899;52.116;5.404;2023-10-13T08:34:30;9.25;;;3.90;;
79452;SDS011;68899;52.116;5.404;2023-10-13T08:37:10;8.60;;;3.40;;
79452;SDS011;68899;52.116;5.404;2023-10-13T08:39:58;13.30;;;4.07;;
79452;SDS011;68899;52.116;5.404;2023-10-13T08:42:36;9.98;;;3.83;;
79452;SDS011;68899;52.116;5.404;2023-10-13T08:45:07;8.98;;;3.70;;
79452;SDS011;68899;52.116;5.404;2023-10-13T08:47:55;13.75;;;4.57;;
79452;SDS011;68899;52.116;5.404;2023-10-13T08:50:46;14.15;;;4.60;;
79452;SDS011;68899;52.116;5.404;2023-10-13T08:53:24;9.18;;;4.18;;
79452;SDS011;68899;52.116;5.404;2023-10-13T08:58:33;11.45;;;4.20;;
79452;SDS011;68899;52.116;5.404;2023-10-13T09:01:31;10.15;;;3.60;;
79452;SDS011;68899;52.116;5.404;2023-10-13T09:04:15;12.90;;;4.43;;
79452;SDS011;68899;52.116;5.404;2023-10-13T09:09:53;12.70;;;4.30;;
79452;SDS011;68899;52.116;5.404;2023-10-13T09:14:53;11.50;;;4.10;;
79452;SDS011;68899;52.116;5.404;2023-10-13T09:17:25;10.30;;;3.65;;
79452;SDS011;68899;52.116;5.404;2023-10-13T09:20:05;14.52;;;4.55;;
79452;SDS011;68899;52.116;5.404;2023-10-13T09:22:55;10.90;;;4.10;;
79452;SDS011;68899;52.116;5.404;2023-10-13T09:25:28;11.80;;;5.40;;
79452;SDS011;68899;52.116;5.404;2023-10-13T09:28:10;11.70;;;5.60;;
79452;SDS011;68899;52.116;5.404;2023-10-13T09:30:52;15.15;;;4.30;;
79452;SDS011;68899;52.116;5.404;2023-10-13T09:35:54;9.82;;;3.90;;
79452;SDS011;68899;52.116;5.404;2023-10-13T09:38:31;10.27;;;6.13;;
79452;SDS011;68899;52.116;5.404;2023-10-13T09:40:59;9.85;;;4.47;;
79452;SDS011;68899;52.116;5.404;2023-10-13T09:43:35;10.30;;;4.82;;
79452;SDS011;68899;52.116;5.404;2023-10-13T09:46:04;11.77;;;4.15;;
79452;SDS011;68899;52.116;5.404;2023-10-13T09:48:34;12.30;;;4.03;;
79452;SDS011;68899;52.116;5.404;2023-10-13T09:51:03;8.82;;;4.38;;
79452;SDS011;68899;52.116;5.404;2023-10-13T09:53:35;11.85;;;4.75;;
79452;SDS011;68899;52.116;5.404;2023-10-13T09:56:26;13.07;;;4.25;;
79452;SDS011;68899;52.116;5.404;2023-10-13T09:58:58;14.63;;;5.25;;
79452;SDS011;68899;52.116;5.404;2023-10-13T10:01:37;10.38;;;3.47;;
79452;SDS011;68899;52.116;5.404;2023-10-13T10:04:17;9.57;;;4.03;;
79452;SDS011;68899;52.116;5.404;2023-10-13T10:06:55;9.20;;;4.15;;
79452;SDS011;68899;52.116;5.404;2023-10-13T10:09:30;9.38;;;4.60;;
79452;SDS011;68899;52.116;5.404;2023-10-13T10:17:45;11.90;;;4.72;;
79452;SDS011;68899;52.116;5.404;2023-10-13T10:20:12;11.15;;;3.72;;
79452;SDS011;68899;52.116;5.404;2023-10-13T10:22:55;11.43;;;4.78;;
79452;SDS011;68899;52.116;5.404;2023-10-13T10:25:30;9.00;;;3.70;;
79452;SDS011;68899;52.116;5.404;2023-10-13T10:28:02;8.93;;;4.60;;
79452;SDS011;68899;52.116;5.404;2023-10-13T10:30:33;8.88;;;4.20;;
79452;SDS011;68899;52.116;5.404;2023-10-13T10:33:01;12.75;;;4.78;;
79452;SDS011;68899;52.116;5.404;2023-10-13T10:35:59;11.63;;;5.00;;
79452;SDS011;68899;52.116;5.404;2023-10-13T10:38:26;13.02;;;4.30;;
79452;SDS011;68899;52.116;5.404;2023-10-13T10:41:03;11.38;;;4.57;;
79452;SDS011;68899;52.116;5.404;2023-10-13T10:43:35;12.82;;;4.70;;
79452;SDS011;68899;52.116;5.404;2023-10-13T10:46:14;14.43;;;5.38;;
79452;SDS011;68899;52.116;5.404;2023-10-13T10:48:45;9.45;;;4.60;;
79452;SDS011;68899;52.116;5.404;2023-10-13T10:51:12;11.52;;;4.18;;
79452;SDS011;68899;52.116;5.404;2023-10-13T10:53:51;10.73;;;4.22;;
79452;SDS011;68899;52.116;5.404;2023-10-13T10:56:23;11.65;;;4.65;;
79452;SDS011;68899;52.116;5.404;2023-10-13T10:58:54;11.48;;;4.47;;
79452;SDS011;68899;52.116;5.404;2023-10-13T11:01:26;15.07;;;5.05;;
79452;SDS011;68899;52.116;5.404;2023-10-13T11:04:05;9.50;;;4.85;;
79452;SDS011;68899;52.116;5.404;2023-10-13T11:06:46;10.65;;;4.28;;
79452;SDS011;68899;52.116;5.404;2023-10-13T11:09:31;12.30;;;4.65;;
79452;SDS011;68899;52.116;5.404;2023-10-13T11:14:32;15.30;;;4.60;;
79452;SDS011;68899;52.116;5.404;2023-10-13T11:16:59;10.15;;;4.10;;
79452;SDS011;68899;52.116;5.404;2023-10-13T11:22:14;14.30;;;4.45;;
79452;SDS011;68899;52.116;5.404;2023-10-13T11:25:03;14.15;;;5.28;;
79452;SDS011;68899;52.116;5.404;2023-10-13T11:27:41;10.82;;;4.20;;
79452;SDS011;68899;52.116;5.404;2023-10-13T11:30:17;18.85;;;5.75;;
79452;SDS011;68899;52.116;5.404;2023-10-13T11:33:20;13.75;;;4.18;;
79452;SDS011;68899;52.116;5.404;2023-10-13T11:35:56;10.13;;;4.38;;
79452;SDS011;68899;52.116;5.404;2023-10-13T11:41:06;12.32;;;3.85;;
79452;SDS011;68899;52.116;5.404;2023-10-13T11:43:33;13.23;;;5.38;;
79452;SDS011;68899;52.116;5.404;2023-10-13T11:46:10;13.55;;;4.35;;
79452;SDS011;68899;52.116;5.404;2023-10-13T11:48:41;11.13;;;4.82;;
79452;SDS011;68899;52.116;5.404;2023-10-13T11:51:09;14.57;;;4.38;;
79452;SDS011;68899;52.116;5.404;2023-10-13T11:53:55;10.82;;;5.13;;
79452;SDS011;68899;52.116;5.404;2023-10-13T11:56:22;11.18;;;4.40;;
79452;SDS011;68899;52.116;5.404;2023-10-13T11:58:49;15.68;;;6.88;;
79452;SDS011;68899;52.116;5.404;2023-10-13T12:01:16;13.32;;;4.75;;
79452;SDS011;68899;52.116;5.404;2023-10-13T12:03:46;13.57;;;4.57;;
79452;SDS011;68899;52.116;5.404;2023-10-13T12:06:33;15.35;;;6.63;;
79452;SDS011;68899;52.116;5.404;2023-10-13T12:09:01;17.13;;;5.53;;
79452;SDS011;68899;52.116;5.404;2023-10-13T12:11:49;12.25;;;5.10;;
79452;SDS011;68899;52.116;5.404;2023-10-13T12:14:20;15.88;;;5.25;;
79452;SDS011;68899;52.116;5.404;2023-10-13T12:17:03;12.63;;;4.97;;
79452;SDS011;68899;52.116;5.404;2023-10-13T12:19:31;13.38;;;5.25;;
79452;SDS011;68899;52.116;5.404;2023-10-13T12:21:58;9.02;;;3.92;;
79452;SDS011;68899;52.116;5.404;2023-10-13T12:24:31;12.25;;;5.20;;
79452;SDS011;68899;52.116;5.404;2023-10-13T12:27:03;10.25;;;4.75;;
79452;SDS011;68899;52.116;5.404;2023-10-13T12:32:18;12.30;;;4.63;;
79452;SDS011;68899;52.116;5.404;2023-10-13T12:34:49;13.93;;;4.88;;
79452;SDS011;68899;52.116;5.404;2023-10-13T12:37:26;12.13;;;4.72;;
79452;SDS011;68899;52.116;5.404;2023-10-13T12:40:05;10.77;;;4.82;;
79452;SDS011;68899;52.116;5.404;2023-10-13T12:42:51;13.48;;;4.78;;
79452;SDS011;68899;52.116;5.404;2023-10-13T12:45:40;10.00;;;4.80;;
79452;SDS011;68899;52.116;5.404;2023-10-13T12:48:26;11.48;;;4.85;;
79452;SDS011;68899;52.116;5.404;2023-10-13T12:51:12;16.17;;;6.68;;
79452;SDS011;68899;52.116;5.404;2023-10-13T12:53:48;12.77;;;5.25;;
79452;SDS011;68899;52.116;5.404;2023-10-13T12:56:15;8.68;;;4.45;;
79452;SDS011;68899;52.116;5.404;2023-10-13T12:58:45;11.02;;;4.28;;
79452;SDS011;68899;52.116;5.404;2023-10-13T13:01:21;12.63;;;4.57;;
79452;SDS011;68899;52.116;5.404;2023-10-13T13:03:51;10.85;;;4.97;;
79452;SDS011;68899;52.116;5.404;2023-10-13T13:06:25;16.55;;;5.10;;
79452;SDS011;68899;52.116;5.404;2023-10-13T13:08:53;13.00;;;4.95;;
79452;SDS011;68899;52.116;5.404;2023-10-13T13:11:19;11.52;;;5.25;;
79452;SDS011;68899;52.116;5.404;2023-10-13T13:13:49;12.05;;;4.72;;
79452;SDS011;68899;52.116;5.404;2023-10-13T13:16:18;13.15;;;5.07;;
79452;SDS011;68899;52.116;5.404;2023-10-13T13:18:46;12.57;;;4.68;;
79452;SDS011;68899;52.116;5.404;2023-10-13T13:21:12;13.65;;;5.38;;
79452;SDS011;68899;52.116;5.404;2023-10-13T13:23:46;11.30;;;4.70;;
79452;SDS011;68899;52.116;5.404;2023-10-13T13:26:13;10.30;;;5.15;;
79452;SDS011;68899;52.116;5.404;2023-10-13T13:28:42;15.55;;;5.18;;
79452;SDS011;68899;52.116;5.404;2023-10-13T13:31:09;13.73;;;4.72;;
79452;SDS011;68899;52.116;5.404;2023-10-13T13:33:38;13.27;;;5.57;;
79452;SDS011;68899;52.116;5.404;2023-10-13T13:36:08;13.55;;;6.25;;
79452;SDS011;68899;52.116;5.404;2023-10-13T13:38:43;11.05;;;4.65;;
79452;SDS011;68899;52.116;5.404;2023-10-13T13:41:15;12.02;;;5.22;;
79452;SDS011;68899;52.116;5.404;2023-10-13T13:43:46;14.48;;;5.45;;
79452;SDS011;68899;52.116;5.404;2023-10-13T13:46:16;14.45;;;5.82;;
79452;SDS011;68899;52.116;5.404;2023-10-13T13:48:44;15.80;;;5.20;;
79452;SDS011;68899;52.116;5.404;2023-10-13T13:51:14;11.02;;;4.60;;
79452;SDS011;68899;52.116;5.404;2023-10-13T13:53:42;16.80;;;5.22;;
79452;SDS011;68899;52.116;5.404;2023-10-13T13:56:11;15.57;;;5.50;;
79452;SDS011;68899;52.116;5.404;2023-10-13T13:58:45;13.48;;;5.55;;
79452;SDS011;68899;52.116;5.404;2023-10-13T14:01:13;13.13;;;5.63;;
79452;SDS011;68899;52.116;5.404;2023-10-13T14:03:48;13.43;;;6.20;;
79452;SDS011;68899;52.116;5.404;2023-10-13T14:06:23;11.80;;;5.65;;
79452;SDS011;68899;52.116;5.404;2023-10-13T14:08:51;9.88;;;5.40;;
79452;SDS011;68899;52.116;5.404;2023-10-13T14:11:21;14.73;;;5.00;;
79452;SDS011;68899;52.116;5.404;2023-10-13T14:16:51;13.55;;;5.10;;
79452;SDS011;68899;52.116;5.404;2023-10-13T14:19:18;12.18;;;4.75;;
79452;SDS011;68899;52.116;5.404;2023-10-13T14:21:57;16.38;;;5.13;;
79452;SDS011;68899;52.116;5.404;2023-10-13T14:27:02;12.48;;;4.47;;
79452;SDS011;68899;52.116;5.404;2023-10-13T14:29:38;12.07;;;6.00;;
79452;SDS011;68899;52.116;5.404;2023-10-13T14:32:12;10.70;;;5.32;;
79452;SDS011;68899;52.116;5.404;2023-10-13T14:34:41;12.43;;;4.90;;
79452;SDS011;68899;52.116;5.404;2023-10-13T14:37:09;10.27;;;4.60;;
79452;SDS011;68899;52.116;5.404;2023-10-13T14:39:40;13.98;;;5.22;;
79452;SDS011;68899;52.116;5.404;2023-10-13T14:42:07;10.68;;;4.25;;
79452;SDS011;68899;52.116;5.404;2023-10-13T14:44:34;13.07;;;5.32;;
79452;SDS011;68899;52.116;5.404;2023-10-13T14:47:01;12.55;;;5.05;;
79452;SDS011;68899;52.116;5.404;2023-10-13T14:49:28;12.80;;;4.80;;
79452;SDS011;68899;52.116;5.404;2023-10-13T14:51:55;9.13;;;4.25;;
79452;SDS011;68899;52.116;5.404;2023-10-13T14:54:22;11.07;;;5.05;;
79452;SDS011;68899;52.116;5.404;2023-10-13T14:57:00;11.60;;;5.43;;
79452;SDS011;68899;52.116;5.404;2023-10-13T14:59:27;8.82;;;5.07;;
79452;SDS011;68899;52.116;5.404;2023-10-13T15:02:00;12.57;;;4.97;;
79452;SDS011;68899;52.116;5.404;2023-10-13T15:04:28;8.80;;;4.05;;
79452;SDS011;68899;52.116;5.404;2023-10-13T15:09:29;13.27;;;5.72;;
79452;SDS011;68899;52.116;5.404;2023-10-13T15:11:57;11.10;;;4.75;;
79452;SDS011;68899;52.116;5.404;2023-10-13T15:14:23;11.57;;;5.28;;
79452;SDS011;68899;52.116;5.404;2023-10-13T15:16:50;12.60;;;4.28;;
79452;SDS011;68899;52.116;5.404;2023-10-13T15:19:18;10.52;;;4.28;;
79452;SDS011;68899;52.116;5.404;2023-10-13T15:21:45;15.00;;;5.03;;
79452;SDS011;68899;52.116;5.404;2023-10-13T15:24:19;16.33;;;5.03;;
79452;SDS011;68899;52.116;5.404;2023-10-13T15:26:56;10.27;;;4.60;;
79452;SDS011;68899;52.116;5.404;2023-10-13T15:29:29;9.07;;;4.40;;
79452;SDS011;68899;52.116;5.404;2023-10-13T15:32:04;11.60;;;5.15;;
79452;SDS011;68899;52.116;5.404;2023-10-13T15:34:53;13.20;;;4.63;;
79452;SDS011;68899;52.116;5.404;2023-10-13T15:37:20;12.95;;;4.80;;
79452;SDS011;68899;52.116;5.404;2023-10-13T15:39:52;11.52;;;4.93;;
79452;SDS011;68899;52.116;5.404;2023-10-13T15:42:18;11.88;;;5.72;;
79452;SDS011;68899;52.116;5.404;2023-10-13T15:44:47;12.23;;;5.00;;
79452;SDS011;68899;52.116;5.404;2023-10-13T15:47:14;16.70;;;4.97;;
79452;SDS011;68899;52.116;5.404;2023-10-13T15:49:44;14.45;;;5.30;;
79452;SDS011;68899;52.116;5.404;2023-10-13T15:52:11;11.50;;;4.53;;
79452;SDS011;68899;52.116;5.404;2023-10-13T15:54:37;10.65;;;4.90;;
79452;SDS011;68899;52.116;5.404;2023-10-13T15:57:04;13.70;;;5.43;;
79452;SDS011;68899;52.116;5.404;2023-10-13T15:59:33;8.65;;;4.80;;
79452;SDS011;68899;52.116;5.404;2023-10-13T16:02:02;13.70;;;5.07;;
79452;SDS011;68899;52.116;5.404;2023-10-13T16:04:33;11.70;;;5.25;;